createdAt,value
2019-02-23T00:00:01.406Z,0.30
2019-02-23T00:02:30.083Z,0.40
2019-02-23T00:04:58.748Z,0.50
2019-02-23T00:07:27.488Z,0.55
2019-02-23T00:09:57.022Z,0.47
2019-02-23T00:12:25.652Z,1.05
2019-02-23T00:14:54.394Z,0.80
2019-02-23T00:17:23.016Z,0.53
2019-02-23T00:19:51.655Z,0.95
2019-02-23T00:22:20.392Z,0.68
2019-02-23T00:24:49.012Z,0.70
2019-02-23T00:27:17.640Z,0.95
2019-02-23T00:29:46.317Z,0.80
2019-02-23T00:32:14.948Z,0.98
2019-02-23T00:34:43.589Z,0.82
2019-02-23T00:37:12.260Z,0.65
2019-02-23T00:39:40.942Z,0.50
2019-02-23T00:42:09.577Z,0.68
2019-02-23T00:44:38.302Z,1.02
2019-02-23T00:47:06.931Z,0.75
2019-02-23T00:49:36.708Z,0.88
2019-02-23T00:52:05.402Z,0.30
2019-02-23T00:54:34.043Z,0.72
2019-02-23T00:57:02.658Z,0.47
2019-02-23T00:59:31.394Z,1.05
2019-02-23T01:02:00.019Z,0.60
2019-02-23T01:04:28.649Z,0.57
2019-02-23T01:06:57.305Z,0.42
2019-02-23T01:09:25.931Z,0.78
2019-02-23T01:11:55.483Z,0.65
2019-02-23T01:14:24.226Z,0.88
2019-02-23T01:16:52.840Z,0.08
2019-02-23T01:19:21.845Z,0.30
2019-02-23T01:21:50.597Z,0.23
2019-02-23T01:24:19.225Z,1.07
2019-02-23T01:26:47.847Z,0.40
2019-02-23T01:29:16.535Z,0.82
2019-02-23T01:31:45.162Z,0.40
2019-02-23T01:34:13.790Z,0.72
2019-02-23T01:36:42.526Z,1.72
2019-02-23T01:39:11.530Z,0.30
2019-02-23T01:41:40.157Z,0.80
2019-02-23T01:44:08.884Z,0.72
2019-02-23T01:46:37.585Z,0.68
2019-02-23T01:49:06.291Z,1.15
2019-02-23T01:51:35.031Z,1.12
2019-02-23T01:54:03.663Z,0.42
2019-02-23T01:56:32.285Z,0.75
2019-02-23T01:59:01.021Z,0.33
2019-02-23T02:01:29.726Z,0.35
2019-02-23T02:03:58.354Z,0.93
2019-02-23T02:06:27.082Z,0.40
2019-02-23T02:08:55.715Z,0.23
2019-02-23T02:11:25.013Z,0.65
2019-02-23T02:13:54.518Z,0.45
2019-02-23T02:16:23.152Z,0.47
2019-02-23T02:18:51.775Z,0.20
2019-02-23T02:21:20.445Z,0.30
2019-02-23T02:23:49.148Z,0.45
2019-02-23T02:26:17.774Z,0.28
2019-02-23T02:28:46.505Z,0.55
2019-02-23T02:31:15.218Z,0.50
2019-02-23T02:34:05.019Z,0.68
2019-02-23T02:36:33.746Z,0.70
2019-02-23T02:39:04.768Z,1.40
2019-02-23T02:41:33.504Z,1.07
2019-02-23T02:44:02.200Z,1.00
2019-02-23T02:46:30.910Z,0.50
2019-02-23T02:48:59.586Z,1.15
2019-02-23T02:51:28.231Z,0.47
2019-02-23T02:53:56.853Z,0.37
2019-02-23T02:56:25.597Z,0.57
2019-02-23T02:58:54.288Z,0.45
2019-02-23T03:01:22.982Z,0.60
2019-02-23T03:03:51.662Z,1.32
2019-02-23T03:06:20.313Z,0.28
2019-02-23T03:08:49.012Z,0.30
2019-02-23T03:11:17.830Z,0.30
2019-02-23T03:13:46.477Z,0.70
2019-02-23T03:16:15.165Z,0.42
2019-02-23T03:18:43.985Z,0.53
2019-02-23T03:21:12.724Z,1.42
2019-02-23T03:23:41.431Z,0.40
2019-02-23T03:26:10.167Z,0.35
2019-02-23T03:28:38.801Z,0.82
2019-02-23T03:31:07.434Z,0.35
2019-02-23T03:33:36.499Z,0.30
2019-02-23T03:36:05.196Z,0.50
2019-02-23T03:38:33.827Z,0.90
2019-02-23T03:41:02.512Z,1.00
2019-02-23T03:43:31.137Z,0.50
2019-02-23T03:45:59.768Z,0.40
2019-02-23T03:48:28.512Z,0.40
2019-02-23T03:50:57.158Z,0.42
2019-02-23T03:53:25.800Z,0.50
2019-02-23T03:55:54.565Z,0.47
2019-02-23T03:58:23.266Z,0.60
2019-02-23T04:00:51.904Z,0.80
2019-02-23T04:03:20.658Z,0.70
2019-02-23T04:05:49.285Z,0.50
2019-02-23T04:08:17.923Z,0.90
2019-02-23T04:10:46.595Z,0.60
2019-02-23T04:13:15.235Z,0.40
2019-02-23T04:15:43.934Z,0.93
2019-02-23T04:18:12.694Z,0.50
2019-02-23T04:20:41.305Z,0.90
2019-02-23T04:23:10.036Z,0.70
2019-02-23T04:25:38.696Z,0.40
2019-02-23T04:28:07.323Z,0.82
2019-02-23T04:30:35.956Z,0.70
2019-02-23T04:33:04.625Z,0.60
2019-02-23T04:35:33.327Z,1.10
2019-02-23T04:38:01.955Z,0.57
2019-02-23T04:40:30.625Z,1.00
2019-02-23T04:42:59.227Z,0.93
2019-02-23T04:45:27.867Z,1.85
2019-02-23T04:47:56.606Z,1.82
2019-02-23T04:50:25.307Z,0.53
2019-02-23T04:52:54.000Z,0.40
2019-02-23T04:55:22.672Z,0.13
2019-02-23T04:57:51.299Z,0.30
2019-02-23T05:00:19.925Z,0.10
2019-02-23T05:02:48.590Z,0.28
2019-02-23T05:05:17.215Z,0.60
2019-02-23T05:07:46.039Z,0.30
2019-02-23T05:10:14.658Z,1.02
2019-02-23T05:12:43.283Z,0.17
2019-02-23T05:15:11.926Z,0.45
2019-02-23T05:17:40.661Z,0.33
2019-02-23T05:20:10.142Z,0.47
2019-02-23T05:22:38.777Z,0.30
2019-02-23T05:25:07.560Z,0.20
2019-02-23T05:27:36.153Z,0.53
2019-02-23T05:30:06.076Z,0.30
2019-02-23T05:32:34.757Z,1.52
2019-02-23T05:35:03.457Z,0.33
2019-02-23T05:37:32.151Z,0.55
2019-02-23T05:40:00.830Z,0.30
2019-02-23T05:42:29.454Z,0.28
2019-02-23T05:44:58.084Z,0.93
2019-02-23T05:47:26.830Z,1.12
2019-02-23T05:49:55.460Z,0.82
2019-02-23T05:52:24.127Z,1.17
2019-02-23T05:54:52.822Z,1.57
2019-02-23T05:57:21.457Z,0.80
2019-02-23T05:59:50.168Z,1.37
2019-02-23T06:02:18.916Z,0.95
2019-02-23T06:04:47.564Z,0.60
2019-02-23T06:07:16.283Z,1.12
2019-02-23T06:09:44.962Z,2.75
2019-02-23T06:12:13.662Z,1.20
2019-02-23T06:14:42.364Z,2.30
2019-02-23T06:17:11.030Z,1.37
2019-02-23T06:19:39.678Z,1.12
2019-02-23T06:22:09.134Z,2.10
2019-02-23T06:24:37.817Z,1.22
2019-02-23T06:27:06.522Z,0.57
2019-02-23T06:29:35.239Z,0.40
2019-02-23T06:32:03.988Z,0.78
2019-02-23T06:34:32.620Z,1.17
2019-02-23T06:37:01.255Z,1.92
2019-02-23T06:39:30.000Z,1.45
2019-02-23T06:41:58.662Z,0.50
2019-02-23T06:44:27.286Z,1.27
2019-02-23T06:46:55.969Z,0.05
2019-02-23T06:49:24.608Z,0.62
2019-02-23T06:52:03.745Z,0.00
2019-02-23T06:54:23.737Z,1.50
2019-02-23T06:56:52.421Z,0.85
2019-02-23T06:59:21.053Z,1.07
2019-02-23T07:01:49.715Z,1.07
2019-02-23T07:04:18.418Z,0.40
2019-02-23T07:06:47.051Z,1.30
2019-02-23T07:09:15.712Z,0.68
2019-02-23T07:11:44.344Z,1.15
2019-02-23T07:14:12.978Z,0.82
2019-02-23T07:16:41.652Z,1.32
2019-02-23T07:19:10.286Z,0.85
2019-02-23T07:21:38.981Z,1.20
2019-02-23T07:24:08.497Z,2.60
2019-02-23T07:26:37.124Z,1.57
2019-02-23T07:29:05.750Z,1.80
2019-02-23T07:31:34.437Z,1.62
2019-02-23T07:34:03.063Z,0.95
2019-02-23T07:36:31.761Z,1.85
2019-02-23T07:39:00.491Z,3.20
2019-02-23T07:41:29.188Z,1.77
2019-02-23T07:43:57.811Z,0.40
2019-02-23T07:46:26.571Z,6.55
2019-02-23T07:48:55.270Z,1.37
2019-02-23T07:51:23.904Z,4.83
2019-02-23T07:53:52.570Z,2.87
2019-02-23T07:56:21.267Z,3.08
2019-02-23T07:58:49.987Z,2.00
2019-02-23T08:01:18.723Z,2.75
2019-02-23T08:03:47.428Z,2.87
2019-02-23T08:06:16.145Z,4.25
2019-02-23T08:08:45.102Z,3.10
2019-02-23T08:11:13.798Z,2.50
2019-02-23T08:13:42.439Z,3.37
2019-02-23T08:16:11.171Z,2.20
2019-02-23T08:18:39.876Z,2.12
2019-02-23T08:21:08.576Z,2.10
2019-02-23T08:23:37.242Z,1.57
2019-02-23T08:26:05.938Z,2.08
2019-02-23T08:28:34.559Z,0.85
2019-02-23T08:31:03.291Z,0.68
2019-02-23T08:33:31.927Z,0.88
2019-02-23T08:36:00.557Z,1.77
2019-02-23T08:38:29.306Z,1.57
2019-02-23T08:40:58.007Z,1.92
2019-02-23T08:43:26.633Z,1.10
2019-02-23T08:45:55.300Z,1.35
2019-02-23T08:48:23.995Z,1.10
2019-02-23T08:50:52.643Z,1.12
2019-02-23T08:53:21.294Z,1.32
2019-02-23T08:55:49.931Z,2.22
2019-02-23T08:58:18.634Z,1.60
2019-02-23T09:00:47.383Z,0.80
2019-02-23T09:03:16.082Z,1.30
2019-02-23T09:05:44.711Z,1.50
2019-02-23T09:08:13.469Z,1.07
2019-02-23T09:10:42.157Z,1.67
2019-02-23T09:13:10.781Z,1.35
2019-02-23T09:15:39.508Z,1.87
2019-02-23T09:18:08.130Z,1.77
2019-02-23T09:20:36.764Z,1.52
2019-02-23T09:23:05.500Z,0.95
2019-02-23T09:25:34.125Z,1.12
2019-02-23T09:28:02.819Z,1.42
2019-02-23T09:30:31.565Z,1.82
2019-02-23T09:33:00.277Z,1.80
2019-02-23T09:35:28.974Z,1.22
2019-02-23T09:37:57.659Z,1.32
2019-02-23T09:40:26.279Z,2.15
2019-02-23T09:42:54.980Z,3.33
2019-02-23T09:45:23.640Z,5.20
2019-02-23T09:47:52.274Z,3.52
2019-02-23T09:50:20.901Z,4.37
2019-02-23T09:52:49.569Z,1.52
2019-02-23T09:55:18.268Z,2.45
2019-02-23T09:57:46.901Z,2.72
2019-02-23T10:00:15.845Z,3.67
2019-02-23T10:02:44.468Z,4.85
2019-02-23T10:05:13.246Z,3.20
2019-02-23T10:07:41.986Z,1.30
2019-02-23T10:10:11.609Z,2.62
2019-02-23T10:12:40.306Z,1.47
2019-02-23T10:15:10.673Z,3.10
2019-02-23T10:17:39.372Z,1.87
2019-02-23T10:20:10.306Z,3.20
2019-02-23T10:22:39.749Z,0.90
2019-02-23T10:25:08.750Z,2.92
2019-02-23T10:27:38.317Z,0.80
2019-02-23T10:30:10.209Z,1.95
2019-02-23T10:32:38.833Z,1.92
2019-02-23T10:35:09.463Z,1.55
2019-02-23T10:37:38.133Z,1.17
2019-02-23T10:40:11.528Z,0.90
2019-02-23T10:42:40.229Z,2.22
2019-02-23T10:45:13.742Z,0.90
2019-02-23T10:47:42.382Z,2.17
2019-02-23T10:50:12.596Z,1.82
2019-02-23T10:52:41.346Z,1.45
2019-02-23T10:55:14.732Z,2.00
2019-02-23T10:57:43.364Z,3.87
2019-02-23T11:00:16.046Z,5.03
2019-02-23T11:02:44.746Z,2.17
2019-02-23T11:05:13.840Z,0.90
2019-02-23T11:07:42.583Z,3.20
2019-02-23T11:10:11.274Z,3.30
2019-02-23T11:12:39.916Z,3.12
2019-02-23T11:15:11.669Z,3.42
2019-02-23T11:17:40.566Z,2.25
2019-02-23T11:20:10.710Z,2.42
2019-02-23T11:22:39.533Z,2.42
2019-02-23T11:25:12.482Z,1.92
2019-02-23T11:27:41.956Z,2.12
2019-02-23T11:30:12.697Z,3.17
2019-02-23T11:32:41.399Z,2.90
2019-02-23T11:35:12.671Z,2.33
2019-02-23T11:37:41.339Z,0.78
2019-02-23T11:40:11.730Z,1.50
2019-02-23T11:42:40.363Z,1.20
2019-02-23T11:45:10.400Z,2.02
2019-02-23T11:47:39.101Z,0.98
2019-02-23T11:50:12.632Z,1.60
2019-02-23T11:52:41.472Z,2.05
2019-02-23T11:55:10.094Z,0.93
2019-02-23T11:57:38.791Z,0.93
2019-02-23T12:00:10.123Z,1.00
2019-02-23T12:02:38.750Z,2.55
2019-02-23T12:05:09.154Z,1.87
2019-02-23T12:07:37.808Z,1.35
2019-02-23T12:10:09.811Z,1.72
2019-02-23T12:12:38.512Z,1.62
2019-02-23T12:15:08.495Z,1.00
2019-02-23T12:17:37.125Z,2.40
2019-02-23T12:20:07.951Z,1.92
2019-02-23T12:22:36.670Z,0.85
2019-02-23T12:25:06.190Z,1.65
2019-02-23T12:27:34.827Z,1.10
2019-02-23T12:30:05.557Z,0.80
2019-02-23T12:32:34.256Z,1.85
2019-02-23T12:35:02.966Z,1.55
2019-02-23T12:37:31.697Z,2.22
2019-02-23T12:40:00.331Z,1.70
2019-02-23T12:42:28.957Z,0.68
2019-02-23T12:44:57.629Z,1.02
2019-02-23T12:47:26.327Z,3.05
2019-02-23T12:49:55.031Z,4.25
2019-02-23T12:52:23.762Z,1.65
2019-02-23T12:54:52.459Z,3.27
2019-02-23T12:57:21.146Z,1.98
2019-02-23T12:59:49.801Z,3.65
2019-02-23T13:02:18.502Z,3.30
2019-02-23T13:04:47.193Z,5.78
2019-02-23T13:07:15.939Z,2.85
2019-02-23T13:09:45.470Z,3.58
2019-02-23T13:12:26.032Z,2.55
2019-02-23T13:15:12.512Z,2.00
2019-02-23T13:18:11.331Z,3.92
2019-02-23T13:20:57.924Z,2.08
2019-02-23T13:23:41.724Z,4.08
2019-02-23T13:26:34.154Z,2.05
2019-02-23T13:29:14.542Z,1.12
2019-02-23T13:31:51.987Z,1.85
2019-02-23T13:34:29.618Z,1.40
2019-02-23T13:37:13.034Z,1.72
2019-02-23T13:39:53.232Z,1.98
2019-02-23T13:42:30.564Z,2.52
2019-02-23T13:45:24.501Z,1.00
2019-02-23T13:48:15.215Z,1.67
2019-02-23T13:51:06.156Z,2.50
2019-02-23T13:53:46.481Z,5.03
2019-02-23T13:56:36.155Z,2.75
2019-02-23T13:59:19.420Z,3.02
2019-02-23T14:01:56.651Z,2.87
2019-02-23T14:04:40.114Z,0.60
2019-02-23T14:07:35.869Z,3.20
2019-02-23T14:10:13.184Z,1.47
2019-02-23T14:12:50.700Z,3.58
2019-02-23T14:15:43.270Z,2.45
2019-02-23T14:18:29.954Z,0.30
2019-02-23T14:21:34.438Z,1.98
2019-02-23T14:24:09.075Z,1.95
2019-02-23T14:26:40.619Z,4.75
2019-02-23T14:29:30.278Z,6.72
2019-02-23T14:32:05.322Z,0.70
2019-02-23T14:34:36.898Z,0.85
2019-02-23T14:37:26.494Z,2.95
2019-02-23T14:40:00.849Z,2.67
2019-02-23T14:42:41.044Z,2.83
2019-02-23T14:45:21.870Z,2.98
2019-02-23T14:48:11.562Z,0.95
2019-02-23T14:50:59.525Z,0.33
2019-02-23T14:53:42.870Z,2.90
2019-02-23T14:56:33.824Z,1.82
2019-02-23T14:59:08.274Z,0.88
2019-02-23T15:01:39.957Z,3.25
2019-02-23T15:04:30.825Z,2.00
2019-02-23T15:07:14.466Z,2.22
2019-02-23T15:09:46.070Z,2.92
2019-02-23T15:12:38.891Z,1.30
2019-02-23T15:15:13.556Z,3.62
2019-02-23T15:18:03.308Z,1.27
2019-02-23T15:20:50.056Z,0.85
2019-02-23T15:23:39.631Z,1.62
2019-02-23T15:26:38.106Z,1.62
2019-02-23T15:29:09.750Z,2.08
2019-02-23T15:31:43.955Z,1.67
2019-02-23T15:34:21.431Z,0.80
2019-02-23T15:37:00.934Z,1.95
2019-02-23T15:40:02.165Z,2.92
2019-02-23T15:42:51.709Z,1.10
2019-02-23T15:45:28.951Z,1.45
2019-02-23T15:48:15.230Z,1.85
2019-02-23T15:50:43.991Z,1.57
2019-02-23T15:53:12.708Z,1.20
2019-02-23T15:55:43.026Z,0.35
2019-02-23T15:58:11.758Z,1.65
2019-02-23T16:00:40.659Z,1.22
2019-02-23T16:03:09.384Z,1.20
2019-02-23T16:05:38.081Z,0.78
2019-02-23T16:08:06.797Z,1.62
2019-02-23T16:10:35.470Z,0.17
2019-02-23T16:13:04.210Z,1.12
2019-02-23T16:15:33.009Z,1.85
2019-02-23T16:18:01.710Z,1.55
2019-02-23T16:20:30.643Z,0.65
2019-02-23T16:22:59.343Z,0.50
2019-02-23T16:25:37.987Z,1.00
2019-02-23T16:27:58.757Z,1.40
2019-02-23T16:30:27.960Z,2.83
2019-02-23T16:32:56.797Z,1.45
2019-02-23T16:35:25.480Z,1.27
2019-02-23T16:37:54.181Z,1.92
2019-02-23T16:40:22.935Z,2.72
2019-02-23T16:42:51.674Z,3.55
2019-02-23T16:45:20.379Z,1.20
2019-02-23T16:47:49.074Z,2.05
2019-02-23T16:50:17.817Z,1.72
2019-02-23T16:52:46.510Z,1.85
2019-02-23T16:55:15.208Z,1.62
2019-02-23T16:57:43.953Z,1.67
2019-02-23T17:00:12.656Z,3.12
2019-02-23T17:02:41.365Z,1.30
2019-02-23T17:05:10.104Z,1.47
2019-02-23T17:07:38.804Z,1.10
2019-02-23T17:10:08.004Z,1.25
2019-02-23T17:12:36.839Z,0.70
2019-02-23T17:15:06.922Z,1.30
2019-02-23T17:17:35.620Z,2.72
2019-02-23T17:20:04.658Z,1.87
2019-02-23T17:22:33.363Z,2.10
2019-02-23T17:25:02.069Z,1.00
2019-02-23T17:27:36.169Z,3.42
2019-02-23T17:30:01.257Z,1.92
2019-02-23T17:32:29.958Z,3.52
2019-02-23T17:34:59.562Z,2.95
2019-02-23T17:37:28.265Z,2.62
2019-02-23T17:39:56.976Z,3.10
2019-02-23T17:42:28.500Z,4.80
2019-02-23T17:44:56.131Z,3.33
2019-02-23T17:47:24.829Z,2.83
2019-02-23T17:49:53.639Z,3.33
2019-02-23T17:52:22.331Z,3.35
2019-02-23T17:54:51.018Z,1.25
2019-02-23T17:57:19.767Z,2.50
2019-02-23T17:59:48.460Z,3.35
2019-02-23T18:02:17.167Z,3.72
2019-02-23T18:04:45.918Z,2.02
2019-02-23T18:07:14.608Z,3.37
2019-02-23T18:09:43.295Z,3.42
2019-02-23T18:12:12.038Z,3.33
2019-02-23T18:14:40.745Z,1.40
2019-02-23T18:17:09.451Z,3.20
2019-02-23T18:19:38.185Z,3.25
2019-02-23T18:22:06.883Z,3.95
2019-02-23T18:24:38.310Z,1.82
2019-02-23T18:27:08.492Z,2.87
2019-02-23T18:29:37.235Z,2.67
2019-02-23T18:32:07.512Z,1.57
2019-02-23T18:34:36.252Z,2.27
2019-02-23T18:37:04.939Z,2.72
2019-02-23T18:39:33.646Z,1.82
2019-02-23T18:42:02.378Z,1.98
2019-02-23T18:44:31.076Z,1.60
2019-02-23T18:46:59.782Z,1.95
2019-02-23T18:49:28.535Z,1.50
2019-02-23T18:51:57.239Z,2.20
2019-02-23T18:54:25.933Z,1.92
2019-02-23T18:56:54.654Z,2.25
2019-02-23T18:59:23.351Z,2.47
2019-02-23T19:01:52.038Z,1.50
2019-02-23T19:04:20.794Z,2.42
2019-02-23T19:06:49.502Z,1.57
2019-02-23T19:09:18.206Z,1.30
2019-02-23T19:11:46.943Z,2.77
2019-02-23T19:14:18.368Z,2.45
2019-02-23T19:16:47.078Z,2.87
2019-02-23T19:19:15.809Z,1.92
2019-02-23T19:21:44.511Z,2.52
2019-02-23T19:24:13.215Z,2.72
2019-02-23T19:26:41.946Z,5.20
2019-02-23T19:29:10.656Z,2.02
2019-02-23T19:31:39.350Z,2.62
2019-02-23T19:34:08.104Z,2.83
2019-02-23T19:36:37.831Z,2.47
2019-02-23T19:39:07.230Z,2.90
2019-02-23T19:41:35.959Z,2.35
2019-02-23T19:44:05.059Z,2.00
2019-02-23T19:46:36.033Z,2.77
2019-02-23T19:49:04.777Z,1.87
2019-02-23T19:51:33.475Z,1.05
2019-02-23T19:54:02.170Z,1.62
2019-02-23T19:56:30.904Z,2.12
2019-02-23T19:59:01.042Z,3.50
2019-02-23T20:01:29.748Z,4.37
2019-02-23T20:03:58.488Z,3.37
2019-02-23T20:06:27.188Z,4.65
2019-02-23T20:08:55.901Z,1.57
2019-02-23T20:11:24.659Z,5.15
2019-02-23T20:13:54.930Z,3.85
2019-02-23T20:16:23.621Z,2.83
2019-02-23T20:18:52.355Z,3.20
2019-02-23T20:21:21.059Z,4.17
2019-02-23T20:23:49.758Z,2.05
2019-02-23T20:26:18.483Z,2.08
2019-02-23T20:28:47.185Z,1.98
2019-02-23T20:31:17.368Z,2.75
2019-02-23T20:33:46.109Z,4.15
2019-02-23T20:36:14.813Z,4.55
2019-02-23T20:38:43.507Z,3.83
2019-02-23T20:41:12.241Z,3.20
2019-02-23T20:43:42.387Z,2.55
2019-02-23T20:46:11.164Z,3.12
2019-02-23T20:48:39.890Z,1.85
2019-02-23T20:51:08.586Z,2.62
2019-02-23T20:53:37.294Z,1.80
2019-02-23T20:56:06.043Z,1.67
2019-02-23T20:58:36.316Z,2.92
2019-02-23T21:01:05.106Z,1.82
2019-02-23T21:03:33.844Z,1.57
2019-02-23T21:06:02.547Z,2.20
2019-02-23T21:08:31.314Z,3.22
2019-02-23T21:11:00.059Z,3.35
2019-02-23T21:13:28.746Z,2.75
2019-02-23T21:15:57.439Z,1.05
2019-02-23T21:18:26.168Z,1.42
2019-02-23T21:20:54.863Z,1.57
2019-02-23T21:23:25.132Z,2.10
2019-02-23T21:25:53.886Z,3.17
2019-02-23T21:28:22.591Z,2.15
2019-02-23T21:30:51.292Z,2.30
2019-02-23T21:33:20.023Z,1.22
2019-02-23T21:35:48.717Z,2.37
2019-02-23T21:38:17.415Z,1.77
2019-02-23T21:40:47.044Z,1.52
2019-02-23T21:43:15.739Z,1.35
2019-02-23T21:45:44.435Z,1.98
2019-02-23T21:48:13.168Z,0.60
2019-02-23T21:50:41.856Z,1.37
2019-02-23T21:53:10.558Z,1.37
2019-02-23T21:55:39.311Z,0.88
2019-02-23T21:58:07.919Z,1.77
2019-02-23T22:00:36.613Z,1.65
2019-02-23T22:03:07.066Z,1.50
2019-02-23T22:05:35.825Z,0.88
2019-02-23T22:08:04.577Z,1.35
2019-02-23T22:10:33.228Z,1.27
2019-02-23T22:13:01.920Z,0.98
2019-02-23T22:15:30.615Z,1.57
2019-02-23T22:17:59.349Z,0.98
2019-02-23T22:20:28.054Z,0.85
2019-02-23T22:22:56.760Z,1.15
2019-02-23T22:25:25.484Z,0.85
2019-02-23T22:27:54.114Z,0.88
2019-02-23T22:30:22.820Z,0.62
2019-02-23T22:32:51.481Z,0.37
2019-02-23T22:35:20.098Z,1.02
2019-02-23T22:37:48.723Z,0.33
2019-02-23T22:40:17.459Z,0.75
2019-02-23T22:42:46.093Z,1.05
2019-02-23T22:45:14.726Z,0.95
2019-02-23T22:47:43.404Z,1.22
2019-02-23T22:50:13.134Z,0.70
2019-02-23T22:52:41.755Z,1.02
2019-02-23T22:55:10.410Z,1.02
2019-02-23T22:57:40.816Z,1.17
2019-02-23T23:00:15.503Z,0.70
2019-02-23T23:02:44.198Z,1.00
2019-02-23T23:05:12.925Z,0.25
2019-02-23T23:07:41.591Z,1.00
2019-02-23T23:10:10.384Z,0.70
2019-02-23T23:12:39.010Z,0.72
2019-02-23T23:15:08.471Z,0.68
2019-02-23T23:17:37.103Z,1.85
2019-02-23T23:20:07.838Z,2.62
2019-02-23T23:22:36.491Z,3.25
2019-02-23T23:25:06.793Z,2.75
2019-02-23T23:27:35.412Z,5.53
2019-02-23T23:30:05.292Z,6.28
2019-02-23T23:32:33.907Z,7.97
2019-02-23T23:35:02.532Z,9.63
2019-02-23T23:37:31.191Z,5.35
2019-02-23T23:39:59.814Z,7.58
2019-02-23T23:42:28.441Z,6.80
2019-02-23T23:44:57.101Z,2.62
2019-02-23T23:47:25.727Z,3.75
2019-02-23T23:49:54.348Z,4.70
2019-02-23T23:52:23.005Z,3.27
2019-02-23T23:54:51.639Z,4.33
2019-02-23T23:57:20.268Z,0.75
2019-02-23T23:59:48.934Z,1.37
